sensor_id;sensor_type;location;lat;lon;timestamp;pressure;altitude;pressure_sealevel;temperature;humidity
70046;BME280;57385;41.832;23.494;2022-12-29T00:00:40;91840.75;;;3.28;86.12
70046;BME280;57385;41.832;23.494;2022-12-29T00:02:02;91845.03;;;3.27;86.06
70046;BME280;57385;41.832;23.494;2022-12-29T00:03:24;91842.34;;;3.29;86.31
70046;BME280;57385;41.832;23.494;2022-12-29T00:04:46;91844.88;;;3.29;86.38
70046;BME280;57385;41.832;23.494;2022-12-29T00:06:10;91846.47;;;3.30;86.13
70046;BME280;57385;41.832;23.494;2022-12-29T00:07:32;91845.50;;;3.31;86.40
70046;BME280;57385;41.832;23.494;2022-12-29T00:08:54;91853.13;;;3.31;86.69
70046;BME280;57385;41.832;23.494;2022-12-29T00:10:16;91845.50;;;3.31;86.22
70046;BME280;57385;41.832;23.494;2022-12-29T00:11:38;91848.03;;;3.31;86.49
70046;BME280;57385;41.832;23.494;2022-12-29T00:12:59;91857.22;;;3.32;86.53
70046;BME280;57385;41.832;23.494;2022-12-29T00:14:41;91858.03;;;3.33;86.68
70046;BME280;57385;41.832;23.494;2022-12-29T00:16:21;91854.69;;;3.32;86.92
70046;BME280;57385;41.832;23.494;2022-12-29T00:17:43;91860.41;;;3.34;85.87
70046;BME280;57385;41.832;23.494;2022-12-29T00:19:05;91861.19;;;3.35;86.30
70046;BME280;57385;41.832;23.494;2022-12-29T00:20:27;91857.06;;;3.34;85.73
70046;BME280;57385;41.832;23.494;2022-12-29T00:22:08;91861.34;;;3.33;85.98
70046;BME280;57385;41.832;23.494;2022-12-29T00:23:49;91859.59;;;3.34;86.00
70046;BME280;57385;41.832;23.494;2022-12-29T00:25:29;91855.34;;;3.34;86.48
70046;BME280;57385;41.832;23.494;2022-12-29T00:27:12;91856.91;;;3.35;86.59
70046;BME280;57385;41.832;23.494;2022-12-29T00:28:53;91856.91;;;3.35;86.71
70046;BME280;57385;41.832;23.494;2022-12-29T00:30:38;91858.50;;;3.36;86.94
70046;BME280;57385;41.832;23.494;2022-12-29T00:32:18;91856.91;;;3.35;86.76
70046;BME280;57385;41.832;23.494;2022-12-29T00:33:59;91856.13;;;3.35;86.73
70046;BME280;57385;41.832;23.494;2022-12-29T00:35:50;91855.16;;;3.36;86.63
70046;BME280;57385;41.832;23.494;2022-12-29T00:37:13;91853.41;;;3.36;86.09
70046;BME280;57385;41.832;23.494;2022-12-29T00:38:37;91861.97;;;3.35;86.83
70046;BME280;57385;41.832;23.494;2022-12-29T00:40:20;91856.91;;;3.35;86.80
70046;BME280;57385;41.832;23.494;2022-12-29T00:42:04;91852.16;;;3.32;87.11
70046;BME280;57385;41.832;23.494;2022-12-29T00:43:45;91864.84;;;3.32;86.79
70046;BME280;57385;41.832;23.494;2022-12-29T00:45:25;91865.63;;;3.33;86.25
70046;BME280;57385;41.832;23.494;2022-12-29T00:46:47;91862.31;;;3.32;86.74
70046;BME280;57385;41.832;23.494;2022-12-29T00:48:09;91868.00;;;3.34;86.23
70046;BME280;57385;41.832;23.494;2022-12-29T00:49:31;91865.47;;;3.34;86.62
70046;BME280;57385;41.832;23.494;2022-12-29T00:50:56;91867.84;;;3.36;86.15
70046;BME280;57385;41.832;23.494;2022-12-29T00:52:18;91858.66;;;3.35;86.83
70046;BME280;57385;41.832;23.494;2022-12-29T00:53:40;91865.16;;;3.37;86.50
70046;BME280;57385;41.832;23.494;2022-12-29T00:55:02;91865.16;;;3.37;86.42
70046;BME280;57385;41.832;23.494;2022-12-29T00:56:24;91863.41;;;3.38;86.59
70046;BME280;57385;41.832;23.494;2022-12-29T00:57:46;91865.94;;;3.38;86.70
70046;BME280;57385;41.832;23.494;2022-12-29T00:59:10;91860.88;;;3.38;86.89
70046;BME280;57385;41.832;23.494;2022-12-29T01:00:32;91851.50;;;3.38;86.13
70046;BME280;57385;41.832;23.494;2022-12-29T01:01:55;91858.16;;;3.39;86.58
70046;BME280;57385;41.832;23.494;2022-12-29T01:03:17;91864.81;;;3.40;86.62
70046;BME280;57385;41.832;23.494;2022-12-29T01:04:39;91861.50;;;3.40;86.27
70046;BME280;57385;41.832;23.494;2022-12-29T01:06:07;91866.56;;;3.40;86.07
70046;BME280;57385;41.832;23.494;2022-12-29T01:07:31;91862.28;;;3.40;86.31
70046;BME280;57385;41.832;23.494;2022-12-29T01:08:56;91859.75;;;3.40;86.68
70046;BME280;57385;41.832;23.494;2022-12-29T01:10:36;91857.38;;;3.39;86.21
70046;BME280;57385;41.832;23.494;2022-12-29T01:11:58;91857.38;;;3.39;86.10
70046;BME280;57385;41.832;23.494;2022-12-29T01:13:20;91850.88;;;3.36;86.73
70046;BME280;57385;41.832;23.494;2022-12-29T01:14:43;91857.06;;;3.34;86.79
70046;BME280;57385;41.832;23.494;2022-12-29T01:16:05;91845.03;;;3.27;86.15
70046;BME280;57385;41.832;23.494;2022-12-29T01:17:28;91845.19;;;3.26;86.28
70046;BME280;57385;41.832;23.494;2022-12-29T01:18:50;91836.47;;;3.20;86.23
70046;BME280;57385;41.832;23.494;2022-12-29T01:20:12;91836.03;;;3.17;86.29
70046;BME280;57385;41.832;23.494;2022-12-29T01:21:34;91837.25;;;3.13;87.05
70046;BME280;57385;41.832;23.494;2022-12-29T01:22:59;91833.63;;;3.07;86.62
70046;BME280;57385;41.832;23.494;2022-12-29T01:24:21;91833.00;;;3.05;86.56
70046;BME280;57385;41.832;23.494;2022-12-29T01:25:43;91828.09;;;3.04;86.28
70046;BME280;57385;41.832;23.494;2022-12-29T01:27:05;91840.13;;;3.02;86.84
70046;BME280;57385;41.832;23.494;2022-12-29T01:28:28;91832.84;;;2.90;86.71
70046;BME280;57385;41.832;23.494;2022-12-29T01:29:49;91832.84;;;2.90;86.89
70046;BME280;57385;41.832;23.494;2022-12-29T01:31:13;91827.78;;;2.90;87.09
70046;BME280;57385;41.832;23.494;2022-12-29T01:32:35;91829.53;;;2.90;87.18
70046;BME280;57385;41.832;23.494;2022-12-29T01:33:57;91826.00;;;2.83;87.51
70046;BME280;57385;41.832;23.494;2022-12-29T01:35:19;91828.72;;;2.81;87.64
70046;BME280;57385;41.832;23.494;2022-12-29T01:36:41;91827.44;;;2.77;87.06
70046;BME280;57385;41.832;23.494;2022-12-29T01:38:03;91820.28;;;2.73;86.56
70046;BME280;57385;41.832;23.494;2022-12-29T01:39:25;91826.63;;;2.68;87.17
70046;BME280;57385;41.832;23.494;2022-12-29T01:40:47;91826.94;;;2.65;87.31
70046;BME280;57385;41.832;23.494;2022-12-29T01:42:19;91822.84;;;2.64;87.68
70046;BME280;57385;41.832;23.494;2022-12-29T01:43:46;91827.13;;;2.64;88.19
70046;BME280;57385;41.832;23.494;2022-12-29T01:45:11;91823.16;;;2.61;88.05
70046;BME280;57385;41.832;23.494;2022-12-29T01:46:43;91818.69;;;2.55;87.25
70046;BME280;57385;41.832;23.494;2022-12-29T01:48:09;91814.75;;;2.53;87.95
70046;BME280;57385;41.832;23.494;2022-12-29T01:49:32;91813.94;;;2.52;87.84
70046;BME280;57385;41.832;23.494;2022-12-29T01:50:54;91811.59;;;2.51;88.25
70046;BME280;57385;41.832;23.494;2022-12-29T01:52:16;91810.00;;;2.50;87.98
70046;BME280;57385;41.832;23.494;2022-12-29T01:53:39;91815.06;;;2.50;87.50
70046;BME280;57385;41.832;23.494;2022-12-29T01:55:02;91812.53;;;2.50;88.39
70046;BME280;57385;41.832;23.494;2022-12-29T01:56:25;91803.34;;;2.49;88.61
70046;BME280;57385;41.832;23.494;2022-12-29T01:57:50;91807.63;;;2.48;88.31
70046;BME280;57385;41.832;23.494;2022-12-29T01:59:16;91806.69;;;2.49;88.15
70046;BME280;57385;41.832;23.494;2022-12-29T02:00:39;91804.16;;;2.49;88.21
70046;BME280;57385;41.832;23.494;2022-12-29T02:02:01;91804.31;;;2.48;87.84
70046;BME280;57385;41.832;23.494;2022-12-29T02:03:26;91805.69;;;2.42;88.61
70046;BME280;57385;41.832;23.494;2022-12-29T02:04:48;91803.81;;;2.36;88.21
70046;BME280;57385;41.832;23.494;2022-12-29T02:06:13;91807.28;;;2.35;88.51
70046;BME280;57385;41.832;23.494;2022-12-29T02:07:39;91807.56;;;2.32;87.86
70046;BME280;57385;41.832;23.494;2022-12-29T02:09:01;91800.94;;;2.31;88.12
70046;BME280;57385;41.832;23.494;2022-12-29T02:10:25;91808.34;;;2.32;88.62
70046;BME280;57385;41.832;23.494;2022-12-29T02:11:50;91801.72;;;2.31;88.48
70046;BME280;57385;41.832;23.494;2022-12-29T02:13:15;91799.19;;;2.31;88.21
70046;BME280;57385;41.832;23.494;2022-12-29T02:14:38;91806.78;;;2.31;88.37
70046;BME280;57385;41.832;23.494;2022-12-29T02:22:27;91811.38;;;2.28;88.08
70046;BME280;57385;41.832;23.494;2022-12-29T02:27:38;91799.97;;;2.24;88.80
70046;BME280;57385;41.832;23.494;2022-12-29T02:32:18;91790.16;;;2.21;88.50
70046;BME280;57385;41.832;23.494;2022-12-29T02:37:22;91791.25;;;2.18;88.57
70046;BME280;57385;41.832;23.494;2022-12-29T02:40:24;91792.34;;;2.16;88.36
70046;BME280;57385;41.832;23.494;2022-12-29T02:42:18;91793.28;;;2.15;88.24
70046;BME280;57385;41.832;23.494;2022-12-29T02:46:03;91790.13;;;2.13;88.77
70046;BME280;57385;41.832;23.494;2022-12-29T02:50:50;91790.75;;;2.06;87.97
70046;BME280;57385;41.832;23.494;2022-12-29T02:52:18;91791.69;;;2.05;88.27
70046;BME280;57385;41.832;23.494;2022-12-29T02:53:42;91791.84;;;2.04;87.94
70046;BME280;57385;41.832;23.494;2022-12-29T02:55:22;91791.19;;;2.02;88.10
70046;BME280;57385;41.832;23.494;2022-12-29T02:56:44;91791.34;;;2.00;88.68
70046;BME280;57385;41.832;23.494;2022-12-29T02:59:31;91797.84;;;1.95;88.20
70046;BME280;57385;41.832;23.494;2022-12-29T03:01:33;91794.66;;;1.93;88.75
70046;BME280;57385;41.832;23.494;2022-12-29T03:07:53;91795.91;;;1.89;88.73
70046;BME280;57385;41.832;23.494;2022-12-29T03:08:59;91789.25;;;1.88;88.18
70046;BME280;57385;41.832;23.494;2022-12-29T03:12:56;91795.41;;;1.85;88.59
70046;BME280;57385;41.832;23.494;2022-12-29T03:15:03;91799.69;;;1.85;88.50
70046;BME280;57385;41.832;23.494;2022-12-29T03:16:50;91798.09;;;1.84;88.54
70046;BME280;57385;41.832;23.494;2022-12-29T03:18:23;91798.41;;;1.81;88.72
70046;BME280;57385;41.832;23.494;2022-12-29T03:19:49;91803.47;;;1.81;87.93
70046;BME280;57385;41.832;23.494;2022-12-29T03:21:22;91795.88;;;1.81;89.04
70046;BME280;57385;41.832;23.494;2022-12-29T03:23:08;91801.88;;;1.80;88.66
70046;BME280;57385;41.832;23.494;2022-12-29T03:24:36;91801.88;;;1.80;88.42
70046;BME280;57385;41.832;23.494;2022-12-29T03:26:03;91798.69;;;1.77;88.82
70046;BME280;57385;41.832;23.494;2022-12-29T03:27:31;91797.63;;;1.80;88.89
70046;BME280;57385;41.832;23.494;2022-12-29T03:28:54;91803.09;;;1.75;89.34
70046;BME280;57385;41.832;23.494;2022-12-29T03:30:23;91801.38;;;1.76;88.76
70046;BME280;57385;41.832;23.494;2022-12-29T03:31:47;91813.84;;;1.77;89.48
70046;BME280;57385;41.832;23.494;2022-12-29T03:33:14;91804.53;;;1.78;89.25
70046;BME280;57385;41.832;23.494;2022-12-29T03:34:40;91798.69;;;1.77;89.08
70046;BME280;57385;41.832;23.494;2022-12-29T03:36:04;91798.69;;;1.77;88.40
70046;BME280;57385;41.832;23.494;2022-12-29T03:37:36;91797.09;;;1.76;88.75
70046;BME280;57385;41.832;23.494;2022-12-29T03:39:05;91795.84;;;1.72;88.79
70046;BME280;57385;41.832;23.494;2022-12-29T03:40:32;91796.63;;;1.73;88.36
70046;BME280;57385;41.832;23.494;2022-12-29T03:42:05;91797.41;;;1.73;88.99
70046;BME280;57385;41.832;23.494;2022-12-29T03:43:28;91806.59;;;1.74;88.75
70046;BME280;57385;41.832;23.494;2022-12-29T03:44:54;91802.31;;;1.75;89.75
70046;BME280;57385;41.832;23.494;2022-12-29T03:46:18;91805.00;;;1.73;89.05
70046;BME280;57385;41.832;23.494;2022-12-29T03:47:41;91807.38;;;1.75;89.21
70046;BME280;57385;41.832;23.494;2022-12-29T03:49:03;91808.97;;;1.76;89.26
70046;BME280;57385;41.832;23.494;2022-12-29T03:50:25;91815.75;;;1.75;88.90
70046;BME280;57385;41.832;23.494;2022-12-29T03:51:47;91814.00;;;1.76;89.41
70046;BME280;57385;41.832;23.494;2022-12-29T03:53:13;91818.28;;;1.75;88.73
70046;BME280;57385;41.832;23.494;2022-12-29T03:54:35;91817.50;;;1.75;88.77
70046;BME280;57385;41.832;23.494;2022-12-29T03:55:58;91819.88;;;1.76;89.15
70046;BME280;57385;41.832;23.494;2022-12-29T03:57:20;91820.66;;;1.77;88.45
70046;BME280;57385;41.832;23.494;2022-12-29T03:58:51;91820.66;;;1.77;88.94
70046;BME280;57385;41.832;23.494;2022-12-29T04:00:19;91811.00;;;1.72;88.98
70046;BME280;57385;41.832;23.494;2022-12-29T04:01:43;91808.78;;;1.69;88.71
70046;BME280;57385;41.832;23.494;2022-12-29T04:03:07;91801.50;;;1.66;89.17
70046;BME280;57385;41.832;23.494;2022-12-29T04:04:29;91807.00;;;1.62;88.87
70046;BME280;57385;41.832;23.494;2022-12-29T04:05:51;91798.47;;;1.63;89.39
70046;BME280;57385;41.832;23.494;2022-12-29T04:07:13;91798.47;;;1.63;89.36
70046;BME280;57385;41.832;23.494;2022-12-29T04:08:36;91801.66;;;1.65;89.40
70046;BME280;57385;41.832;23.494;2022-12-29T04:09:58;91796.59;;;1.65;89.63
70046;BME280;57385;41.832;23.494;2022-12-29T04:11:23;91803.25;;;1.66;89.30
70046;BME280;57385;41.832;23.494;2022-12-29T04:12:52;91805.63;;;1.67;89.03
70046;BME280;57385;41.832;23.494;2022-12-29T04:14:14;91809.09;;;1.66;89.27
70046;BME280;57385;41.832;23.494;2022-12-29T04:15:39;91805.63;;;1.67;89.35
70046;BME280;57385;41.832;23.494;2022-12-29T04:17:01;91805.91;;;1.64;89.11
70046;BME280;57385;41.832;23.494;2022-12-29T04:18:24;91811.63;;;1.66;88.57
70046;BME280;57385;41.832;23.494;2022-12-29T04:19:46;91807.34;;;1.67;88.96
70046;BME280;57385;41.832;23.494;2022-12-29T04:21:08;91810.66;;;1.67;88.80
70046;BME280;57385;41.832;23.494;2022-12-29T04:22:32;91804.97;;;1.65;88.70
70046;BME280;57385;41.832;23.494;2022-12-29T04:23:54;91812.56;;;1.65;88.35
70046;BME280;57385;41.832;23.494;2022-12-29T04:25:16;91811.91;;;1.63;89.36
70046;BME280;57385;41.832;23.494;2022-12-29T04:26:39;91812.84;;;1.62;89.18
70046;BME280;57385;41.832;23.494;2022-12-29T04:28:36;91814.72;;;1.60;88.85
70046;BME280;57385;41.832;23.494;2022-12-29T04:30:24;91815.53;;;1.61;89.14
70046;BME280;57385;41.832;23.494;2022-12-29T04:32:06;91815.53;;;1.61;89.40
70046;BME280;57385;41.832;23.494;2022-12-29T04:33:32;91812.84;;;1.62;89.86
70046;BME280;57385;41.832;23.494;2022-12-29T04:34:54;91817.91;;;1.62;89.10
70046;BME280;57385;41.832;23.494;2022-12-29T04:36:16;91813.63;;;1.63;89.11
70046;BME280;57385;41.832;23.494;2022-12-29T04:37:39;91819.47;;;1.63;89.54
70046;BME280;57385;41.832;23.494;2022-12-29T04:39:01;91817.75;;;1.64;89.16
70046;BME280;57385;41.832;23.494;2022-12-29T04:40:23;91825.00;;;1.59;88.20
70046;BME280;57385;41.832;23.494;2022-12-29T04:41:45;91825.78;;;1.59;89.37
70046;BME280;57385;41.832;23.494;2022-12-29T04:43:12;91826.56;;;1.60;88.89
70046;BME280;57385;41.832;23.494;2022-12-29T04:44:54;91826.56;;;1.60;88.67
70046;BME280;57385;41.832;23.494;2022-12-29T04:46:36;91834.31;;;1.58;88.43
70046;BME280;57385;41.832;23.494;2022-12-29T04:48:03;91834.31;;;1.58;88.76
70046;BME280;57385;41.832;23.494;2022-12-29T04:49:38;91841.25;;;1.56;89.38
70046;BME280;57385;41.832;23.494;2022-12-29T04:51:25;91849.78;;;1.55;89.00
70046;BME280;57385;41.832;23.494;2022-12-29T04:52:46;91844.38;;;1.50;88.99
70046;BME280;57385;41.832;23.494;2022-12-29T04:54:08;91847.56;;;1.52;88.82
70046;BME280;57385;41.832;23.494;2022-12-29T04:55:31;91849.28;;;1.52;89.04
70046;BME280;57385;41.832;23.494;2022-12-29T04:56:53;91848.00;;;1.47;88.60
70046;BME280;57385;41.832;23.494;2022-12-29T04:58:15;91849.88;;;1.45;88.31
70046;BME280;57385;41.832;23.494;2022-12-29T04:59:43;91846.41;;;1.46;89.23
70046;BME280;57385;41.832;23.494;2022-12-29T05:01:05;91852.25;;;1.47;88.25
70046;BME280;57385;41.832;23.494;2022-12-29T05:02:28;91843.09;;;1.46;89.13
70046;BME280;57385;41.832;23.494;2022-12-29T05:03:51;91848.13;;;1.46;88.47
70046;BME280;57385;41.832;23.494;2022-12-29T05:05:13;91841.50;;;1.45;88.73
70046;BME280;57385;41.832;23.494;2022-12-29T05:06:39;91840.72;;;1.44;89.02
70046;BME280;57385;41.832;23.494;2022-12-29T05:08:01;91844.34;;;1.42;87.94
70046;BME280;57385;41.832;23.494;2022-12-29T05:09:24;91845.44;;;1.39;88.14
70046;BME280;57385;41.832;23.494;2022-12-29T05:10:46;91843.06;;;1.38;88.92
70046;BME280;57385;41.832;23.494;2022-12-29T05:12:09;91842.38;;;1.36;88.43
70046;BME280;57385;41.832;23.494;2022-12-29T05:13:39;91845.84;;;1.35;88.33
70046;BME280;57385;41.832;23.494;2022-12-29T05:15:02;91838.28;;;1.35;88.96
70046;BME280;57385;41.832;23.494;2022-12-29T05:16:25;91838.28;;;1.35;88.74
70046;BME280;57385;41.832;23.494;2022-12-29T05:18:14;91835.91;;;1.33;88.17
70046;BME280;57385;41.832;23.494;2022-12-29T05:19:36;91838.09;;;1.28;88.52
70046;BME280;57385;41.832;23.494;2022-12-29T05:21:00;91833.03;;;1.28;89.02
70046;BME280;57385;41.832;23.494;2022-12-29T05:22:22;91837.94;;;1.30;89.11
70046;BME280;57385;41.832;23.494;2022-12-29T05:23:44;91842.91;;;1.22;88.19
70046;BME280;57385;41.832;23.494;2022-12-29T05:25:08;91847.41;;;1.28;88.16
70046;BME280;57385;41.832;23.494;2022-12-29T05:26:43;91840.13;;;1.25;88.30
70046;BME280;57385;41.832;23.494;2022-12-29T05:28:30;91844.50;;;1.23;88.18
70046;BME280;57385;41.832;23.494;2022-12-29T05:29:59;91838.66;;;1.22;88.43
70046;BME280;57385;41.832;23.494;2022-12-29T05:31:21;91846.91;;;1.24;88.96
70046;BME280;57385;41.832;23.494;2022-12-29T05:32:42;91841.94;;;1.14;88.48
70046;BME280;57385;41.832;23.494;2022-12-29T05:34:04;91839.91;;;1.18;89.49
70046;BME280;57385;41.832;23.494;2022-12-29T05:35:26;91844.00;;;1.19;88.83
70046;BME280;57385;41.832;23.494;2022-12-29T05:36:48;91842.56;;;1.16;89.42
70046;BME280;57385;41.832;23.494;2022-12-29T05:38:10;91845.09;;;1.16;89.66
70046;BME280;57385;41.832;23.494;2022-12-29T05:39:32;91846.53;;;1.19;89.20
70046;BME280;57385;41.832;23.494;2022-12-29T05:40:57;91843.38;;;1.17;88.62
70046;BME280;57385;41.832;23.494;2022-12-29T05:42:42;91843.22;;;1.18;89.38
70046;BME280;57385;41.832;23.494;2022-12-29T05:44:23;91844.00;;;1.19;88.95
70046;BME280;57385;41.832;23.494;2022-12-29T05:46:04;91841.63;;;1.17;89.80
70046;BME280;57385;41.832;23.494;2022-12-29T05:47:38;91842.56;;;1.16;89.49
70046;BME280;57385;41.832;23.494;2022-12-29T05:49:38;91850.16;;;1.16;89.47
70046;BME280;57385;41.832;23.494;2022-12-29T05:53:48;91841.16;;;1.14;88.53
70046;BME280;57385;41.832;23.494;2022-12-29T05:55:11;91839.56;;;1.13;88.40
70046;BME280;57385;41.832;23.494;2022-12-29T05:56:34;91839.56;;;1.13;89.45
70046;BME280;57385;41.832;23.494;2022-12-29T05:57:57;91845.41;;;1.13;89.36
70046;BME280;57385;41.832;23.494;2022-12-29T05:59:19;91848.09;;;1.12;89.06
70046;BME280;57385;41.832;23.494;2022-12-29T06:00:42;91846.34;;;1.12;89.67
70046;BME280;57385;41.832;23.494;2022-12-29T06:02:04;91847.94;;;1.13;89.81
70046;BME280;57385;41.832;23.494;2022-12-29T06:03:28;91844.75;;;1.11;89.38
70046;BME280;57385;41.832;23.494;2022-12-29T06:04:51;91845.41;;;1.13;88.82
70046;BME280;57385;41.832;23.494;2022-12-29T06:06:13;91849.13;;;1.09;89.56
70046;BME280;57385;41.832;23.494;2022-12-29T06:07:35;91847.72;;;1.07;89.30
70046;BME280;57385;41.832;23.494;2022-12-29T06:08:57;91854.34;;;1.08;89.54
70046;BME280;57385;41.832;23.494;2022-12-29T06:10:19;91855.81;;;1.10;89.12
70046;BME280;57385;41.832;23.494;2022-12-29T06:11:47;91853.13;;;1.12;89.48
70046;BME280;57385;41.832;23.494;2022-12-29T06:13:09;91853.78;;;1.14;90.09
70046;BME280;57385;41.832;23.494;2022-12-29T06:14:34;91855.22;;;1.16;90.01
70046;BME280;57385;41.832;23.494;2022-12-29T06:15:57;91854.25;;;1.17;89.75
70046;BME280;57385;41.832;23.494;2022-12-29T06:17:21;91859.16;;;1.19;89.55
70046;BME280;57385;41.832;23.494;2022-12-29T06:18:44;91861.69;;;1.19;89.07
70046;BME280;57385;41.832;23.494;2022-12-29T06:20:07;91863.13;;;1.22;89.54
70046;BME280;57385;41.832;23.494;2022-12-29T06:21:30;91864.88;;;1.21;88.50
70046;BME280;57385;41.832;23.494;2022-12-29T06:22:54;91868.97;;;1.22;89.08
70046;BME280;57385;41.832;23.494;2022-12-29T06:24:17;91872.97;;;1.25;89.05
70046;BME280;57385;41.832;23.494;2022-12-29T06:25:39;91863.13;;;1.22;89.30
70046;BME280;57385;41.832;23.494;2022-12-29T06:27:01;91871.38;;;1.24;88.83
70046;BME280;57385;41.832;23.494;2022-12-29T06:28:23;91872.81;;;1.26;88.97
70046;BME280;57385;41.832;23.494;2022-12-29T06:29:47;91876.13;;;1.27;88.62
70046;BME280;57385;41.832;23.494;2022-12-29T06:31:10;91877.72;;;1.28;88.82
70046;BME280;57385;41.832;23.494;2022-12-29T06:32:32;91874.88;;;1.31;88.50
70046;BME280;57385;41.832;23.494;2022-12-29T06:33:57;91872.06;;;1.34;88.76
70046;BME280;57385;41.832;23.494;2022-12-29T06:35:24;91873.66;;;1.35;88.69
70046;BME280;57385;41.832;23.494;2022-12-29T06:36:46;91870.97;;;1.36;88.71
70046;BME280;57385;41.832;23.494;2022-12-29T06:38:08;91877.47;;;1.39;89.19
70046;BME280;57385;41.832;23.494;2022-12-29T06:39:30;91877.34;;;1.40;88.63
70046;BME280;57385;41.832;23.494;2022-12-29T06:40:59;91874.50;;;1.43;88.78
70046;BME280;57385;41.832;23.494;2022-12-29T06:42:33;91876.72;;;1.46;89.13
70046;BME280;57385;41.832;23.494;2022-12-29T06:44:13;91882.94;;;1.52;88.74
70046;BME280;57385;41.832;23.494;2022-12-29T06:45:49;91871.09;;;1.53;88.17
70046;BME280;57385;41.832;23.494;2022-12-29T06:47:11;91879.19;;;1.56;88.09
70046;BME280;57385;41.832;23.494;2022-12-29T06:48:33;91883.78;;;1.61;88.18
70046;BME280;57385;41.832;23.494;2022-12-29T06:49:55;91886.75;;;1.56;87.68
70046;BME280;57385;41.832;23.494;2022-12-29T06:51:16;91890.06;;;1.57;86.97
70046;BME280;57385;41.832;23.494;2022-12-29T06:52:38;91892.22;;;1.69;86.99
70046;BME280;57385;41.832;23.494;2022-12-29T06:54:00;91887.00;;;1.71;86.29
70046;BME280;57385;41.832;23.494;2022-12-29T06:55:22;91885.72;;;1.67;85.33
70046;BME280;57385;41.832;23.494;2022-12-29T06:56:44;91887.97;;;1.78;85.17
70046;BME280;57385;41.832;23.494;2022-12-29T06:58:06;91895.47;;;1.88;85.56
70046;BME280;57385;41.832;23.494;2022-12-29T06:59:28;91899.56;;;1.89;85.28
70046;BME280;57385;41.832;23.494;2022-12-29T07:00:50;91896.09;;;1.64;83.65
70046;BME280;57385;41.832;23.494;2022-12-29T07:02:11;91897.56;;;1.66;83.87
70046;BME280;57385;41.832;23.494;2022-12-29T07:03:36;91902.81;;;1.73;83.62
70046;BME280;57385;41.832;23.494;2022-12-29T07:04:58;91898.94;;;1.61;83.28
70046;BME280;57385;41.832;23.494;2022-12-29T07:06:20;91906.78;;;1.32;83.33
70046;BME280;57385;41.832;23.494;2022-12-29T07:07:41;91902.91;;;1.19;83.16
70046;BME280;57385;41.832;23.494;2022-12-29T07:09:03;91910.44;;;1.11;83.66
70046;BME280;57385;41.832;23.494;2022-12-29T07:10:25;91905.22;;;1.31;84.84
70046;BME280;57385;41.832;23.494;2022-12-29T07:11:47;91903.69;;;1.38;85.67
70046;BME280;57385;41.832;23.494;2022-12-29T07:13:09;91906.47;;;1.53;84.88
70046;BME280;57385;41.832;23.494;2022-12-29T07:14:31;91898.50;;;1.65;85.08
70046;BME280;57385;41.832;23.494;2022-12-29T07:15:59;91896.88;;;1.82;85.09
70046;BME280;57385;41.832;23.494;2022-12-29T07:17:26;91902.16;;;1.97;85.08
70046;BME280;57385;41.832;23.494;2022-12-29T07:18:48;91899.88;;;2.12;84.73
70046;BME280;57385;41.832;23.494;2022-12-29T07:20:10;91900.72;;;2.28;83.88
70046;BME280;57385;41.832;23.494;2022-12-29T07:21:32;91900.94;;;2.43;83.22
70046;BME280;57385;41.832;23.494;2022-12-29T07:22:54;91908.72;;;2.58;83.02
70046;BME280;57385;41.832;23.494;2022-12-29T07:24:16;91902.00;;;2.75;83.06
70046;BME280;57385;41.832;23.494;2022-12-29T07:25:38;91896.97;;;2.91;82.59
70046;BME280;57385;41.832;23.494;2022-12-29T07:27:02;91894.13;;;3.10;82.25
70046;BME280;57385;41.832;23.494;2022-12-29T07:28:24;91889.22;;;3.25;81.12
70046;BME280;57385;41.832;23.494;2022-12-29T07:29:46;91896.81;;;3.41;80.89
70046;BME280;57385;41.832;23.494;2022-12-29T07:31:14;91903.16;;;3.53;79.78
70046;BME280;57385;41.832;23.494;2022-12-29T07:32:37;91898.88;;;3.70;79.47
70046;BME280;57385;41.832;23.494;2022-12-29T07:33:59;91896.19;;;3.55;78.83
70046;BME280;57385;41.832;23.494;2022-12-29T07:35:21;91901.59;;;3.61;78.95
70046;BME280;57385;41.832;23.494;2022-12-29T07:36:43;91893.81;;;3.62;78.07
70046;BME280;57385;41.832;23.494;2022-12-29T07:38:05;91893.94;;;3.85;77.65
70046;BME280;57385;41.832;23.494;2022-12-29T07:39:27;91902.47;;;4.00;76.72
70046;BME280;57385;41.832;23.494;2022-12-29T07:40:49;91892.97;;;3.94;76.06
70046;BME280;57385;41.832;23.494;2022-12-29T07:42:11;91907.56;;;4.00;76.15
70046;BME280;57385;41.832;23.494;2022-12-29T07:43:38;91901.47;;;4.26;75.64
70046;BME280;57385;41.832;23.494;2022-12-29T07:45:18;91898.69;;;4.43;75.17
70046;BME280;57385;41.832;23.494;2022-12-29T07:46:56;91901.44;;;4.65;75.13
70046;BME280;57385;41.832;23.494;2022-12-29T07:48:19;91896.34;;;4.73;74.54
70046;BME280;57385;41.832;23.494;2022-12-29T07:49:42;91900.09;;;4.85;74.33
70046;BME280;57385;41.832;23.494;2022-12-29T07:51:04;91900.56;;;5.12;74.20
70046;BME280;57385;41.832;23.494;2022-12-29T07:52:26;91898.97;;;5.33;73.41
70046;BME280;57385;41.832;23.494;2022-12-29T07:53:48;91895.66;;;5.56;72.80
70046;BME280;57385;41.832;23.494;2022-12-29T07:55:10;91896.22;;;5.66;72.51
70046;BME280;57385;41.832;23.494;2022-12-29T07:56:32;91895.31;;;5.97;71.08
70046;BME280;57385;41.832;23.494;2022-12-29T07:57:55;91894.91;;;6.22;71.06
70046;BME280;57385;41.832;23.494;2022-12-29T07:59:16;91891.81;;;6.57;69.95
70046;BME280;57385;41.832;23.494;2022-12-29T08:00:39;91893.53;;;6.86;69.54
70046;BME280;57385;41.832;23.494;2022-12-29T08:02:01;91886.34;;;7.10;67.93
70046;BME280;57385;41.832;23.494;2022-12-29T08:03:24;91889.28;;;7.29;67.37
70046;BME280;57385;41.832;23.494;2022-12-29T08:04:47;91891.84;;;7.29;67.23
70046;BME280;57385;41.832;23.494;2022-12-29T08:06:10;91890.44;;;7.69;66.92
70046;BME280;57385;41.832;23.494;2022-12-29T08:07:32;91894.88;;;8.10;65.43
70046;BME280;57385;41.832;23.494;2022-12-29T08:08:54;91891.53;;;8.44;64.61
70046;BME280;57385;41.832;23.494;2022-12-29T08:10:18;91893.66;;;8.75;63.01
70046;BME280;57385;41.832;23.494;2022-12-29T08:11:40;91889.63;;;9.00;62.01